Time;durP1;ratioP1;P1;durP2;ratioP2;P2;SDS_P1;SDS_P2;PMS_P1;PMS_P2;Temp;Humidity;BMP_temperature;BMP_pressure;BME280_temperature;BME280_humidity;BME280_pressure;Samples;Min_cycle;Max_cycle;Signal;HPM_P1;HPM_P2
2021/03/08 00:01:16;;;;;;;14.33;12.37;;;;;;;;;;5016272;28;20263;-70
2021/03/08 00:03:42;;;;;;;15.50;13.70;;;;;;;;;;5027806;28;20189;-70
2021/03/08 00:06:08;;;;;;;14.73;13.23;;;;;;;;;;5013440;28;20220;-70
2021/03/08 00:08:34;;;;;;;14.53;12.63;;;;;;;;;;5017267;28;20199;-70
2021/03/08 00:11:00;;;;;;;17.03;13.90;;;;;;;;;;5027861;28;20263;-69
2021/03/08 00:13:25;;;;;;;14.20;12.70;;;;;;;;;;5018228;28;20268;-70
2021/03/08 00:15:51;;;;;;;14.93;12.63;;;;;;;;;;5019397;28;20208;-70
2021/03/08 00:18:17;;;;;;;14.67;13.17;;;;;;;;;;5035505;28;20188;-70
2021/03/08 00:20:43;;;;;;;14.60;13.10;;;;;;;;;;5026116;28;20319;-70
2021/03/08 00:23:09;;;;;;;18.77;14.93;;;;;;;;;;5035681;28;20674;-70
2021/03/08 00:25:36;;;;;;;15.50;13.83;;;;;;;;;;5019404;28;20222;-70
2021/03/08 00:28:02;;;;;;;15.17;13.53;;;;;;;;;;5028930;28;20188;-70
2021/03/08 00:30:28;;;;;;;14.57;13.07;;;;;;;;;;5023986;28;20234;-70
2021/03/08 00:32:54;;;;;;;16.10;13.73;;;;;;;;;;5022685;28;20187;-70
2021/03/08 00:35:21;;;;;;;16.00;13.37;;;;;;;;;;5023216;28;20287;-70
2021/03/08 00:37:47;;;;;;;15.50;13.83;;;;;;;;;;5019863;28;20189;-70
2021/03/08 00:40:18;;;;;;;23.47;16.37;;;;;;;;;;5023895;28;20690;-70
2021/03/08 00:42:44;;;;;;;20.23;14.83;;;;;;;;;;5024894;28;20309;-69
2021/03/08 00:45:11;;;;;;;18.03;14.63;;;;;;;;;;5019778;28;20222;-70
2021/03/08 00:47:37;;;;;;;15.80;14.13;;;;;;;;;;5027707;28;20555;-69
2021/03/08 00:50:05;;;;;;;19.83;14.20;;;;;;;;;;5014554;28;20263;-70
2021/03/08 00:52:31;;;;;;;17.37;13.67;;;;;;;;;;5023158;28;20327;-70
2021/03/08 00:54:57;;;;;;;17.10;13.60;;;;;;;;;;5017049;28;20640;-70
2021/03/08 00:57:23;;;;;;;15.60;12.13;;;;;;;;;;5023324;28;20191;-69
2021/03/08 00:59:49;;;;;;;15.40;13.10;;;;;;;;;;5026125;28;20199;-69
2021/03/08 01:02:15;;;;;;;15.03;12.43;;;;;;;;;;5022501;28;20277;-69
2021/03/08 01:04:41;;;;;;;17.03;13.33;;;;;;;;;;5031489;28;20239;-69
2021/03/08 01:07:07;;;;;;;15.37;13.47;;;;;;;;;;5017939;28;20647;-70
2021/03/08 01:09:33;;;;;;;15.40;13.80;;;;;;;;;;5017497;28;20218;-70
2021/03/08 01:11:59;;;;;;;17.00;13.90;;;;;;;;;;5026164;28;20242;-72
2021/03/08 01:14:25;;;;;;;17.77;12.30;;;;;;;;;;5023416;28;20183;-70
2021/03/08 01:16:51;;;;;;;14.13;12.63;;;;;;;;;;5020069;28;20207;-70
2021/03/08 01:19:17;;;;;;;13.70;11.93;;;;;;;;;;5025345;28;20180;-71
2021/03/08 01:21:43;;;;;;;14.97;12.73;;;;;;;;;;5028300;28;20642;-70
2021/03/08 01:24:09;;;;;;;14.23;12.57;;;;;;;;;;5024518;28;20208;-70
2021/03/08 01:26:35;;;;;;;14.60;12.90;;;;;;;;;;5029212;28;20220;-70
2021/03/08 01:29:01;;;;;;;14.50;12.77;;;;;;;;;;5022953;28;20191;-70
2021/03/08 01:31:27;;;;;;;16.37;13.07;;;;;;;;;;5017856;28;20183;-71
2021/03/08 01:33:53;;;;;;;14.53;12.97;;;;;;;;;;5022942;28;20189;-70
2021/03/08 01:36:20;;;;;;;15.43;13.80;;;;;;;;;;5022716;28;20212;-70
2021/03/08 01:38:46;;;;;;;16.43;13.47;;;;;;;;;;5024547;28;20197;-70
2021/03/08 01:41:12;;;;;;;16.07;13.10;;;;;;;;;;5023676;28;20191;-70
2021/03/08 01:43:38;;;;;;;14.27;12.13;;;;;;;;;;5034341;28;20195;-72
2021/03/08 01:46:04;;;;;;;13.83;12.43;;;;;;;;;;5027086;28;20682;-72
2021/03/08 01:48:30;;;;;;;14.40;11.17;;;;;;;;;;5020984;28;20199;-69
2021/03/08 01:50:56;;;;;;;12.40;11.10;;;;;;;;;;5026638;28;20233;-70
2021/03/08 01:53:22;;;;;;;14.23;11.90;;;;;;;;;;5026696;28;20181;-70
2021/03/08 01:55:48;;;;;;;13.93;12.17;;;;;;;;;;5021145;28;20216;-70
2021/03/08 01:58:15;;;;;;;18.73;12.17;;;;;;;;;;5022513;28;20196;-70
2021/03/08 02:00:41;;;;;;;13.40;11.80;;;;;;;;;;5019092;28;20682;-71
2021/03/08 02:03:07;;;;;;;14.37;12.10;;;;;;;;;;5029642;28;20194;-69
2021/03/08 02:05:35;;;;;;;13.90;12.40;;;;;;;;;;5024552;28;20226;-71
2021/03/08 02:08:02;;;;;;;14.70;12.53;;;;;;;;;;5012982;28;20188;-70
2021/03/08 02:10:29;;;;;;;16.17;12.73;;;;;;;;;;5031788;28;20189;-72
2021/03/08 02:12:55;;;;;;;13.83;11.83;;;;;;;;;;5024556;28;20264;-70
2021/03/08 02:15:33;;;;;;;16.53;11.53;;;;;;;;;;5028577;28;20299;-72
2021/03/08 02:18:17;;;;;;;13.63;11.93;;;;;;;;;;5025544;28;20192;-70
2021/03/08 02:20:49;;;;;;;18.23;13.87;;;;;;;;;;5017559;28;20202;-70
2021/03/08 02:23:34;;;;;;;17.07;13.53;;;;;;;;;;5028293;28;20666;-70
2021/03/08 02:26:19;;;;;;;17.63;14.10;;;;;;;;;;5030494;28;20215;-70
2021/03/08 02:29:00;;;;;;;18.13;14.97;;;;;;;;;;5024084;28;20209;-70
2021/03/08 02:31:26;;;;;;;15.50;13.43;;;;;;;;;;5025195;28;20182;-70
2021/03/08 02:33:55;;;;;;;18.90;15.33;;;;;;;;;;5016737;28;20180;-70
2021/03/08 02:36:22;;;;;;;16.00;13.97;;;;;;;;;;5030497;28;20323;-71
2021/03/08 02:38:52;;;;;;;16.40;14.60;;;;;;;;;;5019269;28;20599;-70
2021/03/08 02:41:22;;;;;;;15.47;13.87;;;;;;;;;;5023506;28;20192;-72
2021/03/08 02:43:52;;;;;;;16.53;14.40;;;;;;;;;;5022598;28;20223;-72
2021/03/08 02:46:24;;;;;;;16.30;14.03;;;;;;;;;;5017695;28;20302;-72
2021/03/08 02:48:51;;;;;;;16.70;14.63;;;;;;;;;;5022799;28;20192;-71
2021/03/08 02:51:18;;;;;;;16.23;14.30;;;;;;;;;;5028118;28;20182;-71
2021/03/08 02:53:46;;;;;;;16.87;14.27;;;;;;;;;;5026949;28;20580;-71
2021/03/08 02:56:15;;;;;;;18.47;15.90;;;;;;;;;;5023460;28;20210;-72
2021/03/08 02:58:43;;;;;;;19.07;14.63;;;;;;;;;;5018494;28;20182;-71
2021/03/08 03:01:10;;;;;;;17.10;14.17;;;;;;;;;;5027312;28;20218;-71
2021/03/08 03:03:38;;;;;;;16.97;14.63;;;;;;;;;;5036259;28;20188;-71
2021/03/08 03:06:05;;;;;;;16.50;14.70;;;;;;;;;;5022188;28;20278;-71
2021/03/08 03:08:32;;;;;;;18.37;15.20;;;;;;;;;;5029446;28;20687;-71
2021/03/08 03:10:58;;;;;;;17.97;13.73;;;;;;;;;;5028509;28;20288;-71
2021/03/08 03:13:24;;;;;;;17.03;14.77;;;;;;;;;;5023636;28;20185;-71
2021/03/08 03:15:51;;;;;;;17.83;15.40;;;;;;;;;;5021236;28;20211;-71
2021/03/08 03:18:17;;;;;;;18.70;15.63;;;;;;;;;;5022923;28;20254;-70
2021/03/08 03:20:45;;;;;;;18.67;15.00;;;;;;;;;;5028489;28;20185;-71
2021/03/08 03:23:12;;;;;;;16.57;14.83;;;;;;;;;;5026168;28;20658;-71
2021/03/08 03:25:38;;;;;;;19.30;14.50;;;;;;;;;;5013979;28;20210;-71
2021/03/08 03:28:05;;;;;;;16.57;14.77;;;;;;;;;;5028550;28;20696;-71
2021/03/08 03:30:32;;;;;;;18.90;15.73;;;;;;;;;;5021238;28;20183;-70
2021/03/08 03:32:58;;;;;;;17.37;14.40;;;;;;;;;;5041578;28;20180;-71
2021/03/08 03:35:26;;;;;;;19.00;15.50;;;;;;;;;;5026278;28;20208;-72
2021/03/08 03:37:51;;;;;;;17.57;15.37;;;;;;;;;;5028916;28;20186;-72
2021/03/08 03:40:19;;;;;;;17.53;15.17;;;;;;;;;;5025658;28;20188;-70
2021/03/08 03:42:46;;;;;;;18.53;14.40;;;;;;;;;;5024537;28;20253;-72
2021/03/08 03:45:12;;;;;;;17.97;14.23;;;;;;;;;;5026380;28;20212;-72
2021/03/08 03:47:39;;;;;;;19.10;15.50;;;;;;;;;;5013900;28;20187;-72
2021/03/08 03:50:10;;;;;;;17.13;15.03;;;;;;;;;;5023559;28;20182;-72
2021/03/08 03:52:36;;;;;;;17.07;14.77;;;;;;;;;;5020820;28;20181;-72
2021/03/08 03:55:04;;;;;;;16.33;14.63;;;;;;;;;;5022670;28;20268;-72
2021/03/08 03:57:34;;;;;;;16.30;13.73;;;;;;;;;;5020778;28;20201;-72
2021/03/08 04:00:01;;;;;;;16.43;13.67;;;;;;;;;;5019995;28;20190;-72
2021/03/08 04:02:42;;;;;;;17.07;13.87;;;;;;;;;;5023075;28;20528;-71
2021/03/08 04:05:11;;;;;;;17.17;14.10;;;;;;;;;;5030961;28;20212;-71
2021/03/08 04:07:40;;;;;;;15.10;13.47;;;;;;;;;;5029389;28;20184;-71
2021/03/08 04:10:08;;;;;;;18.10;14.67;;;;;;;;;;5022520;28;20190;-72
2021/03/08 04:12:35;;;;;;;15.60;13.90;;;;;;;;;;5021394;28;20181;-72
2021/03/08 04:15:08;;;;;;;17.20;13.90;;;;;;;;;;5020868;28;20655;-69
2021/03/08 04:17:35;;;;;;;16.93;13.97;;;;;;;;;;5023127;28;20191;-70
2021/03/08 04:20:02;;;;;;;17.10;13.57;;;;;;;;;;5022444;28;20225;-72
2021/03/08 04:22:29;;;;;;;19.13;15.27;;;;;;;;;;5028348;28;20694;-72
2021/03/08 04:24:57;;;;;;;17.97;15.30;;;;;;;;;;5024341;28;20280;-72
2021/03/08 04:27:24;;;;;;;18.87;15.47;;;;;;;;;;5022138;28;20281;-72
2021/03/08 04:29:50;;;;;;;17.53;14.80;;;;;;;;;;5022730;28;20655;-72
2021/03/08 04:32:17;;;;;;;21.27;15.17;;;;;;;;;;5026240;28;20184;-72
2021/03/08 04:34:44;;;;;;;16.27;13.87;;;;;;;;;;5020400;28;20212;-72
2021/03/08 04:37:12;;;;;;;19.87;15.90;;;;;;;;;;5019736;28;20204;-70
2021/03/08 04:39:38;;;;;;;16.20;14.20;;;;;;;;;;5026163;28;20182;-70
2021/03/08 04:42:05;;;;;;;19.30;17.20;;;;;;;;;;5032731;28;20184;-70
2021/03/08 04:44:33;;;;;;;19.40;16.50;;;;;;;;;;5037154;28;20187;-70
2021/03/08 04:46:59;;;;;;;23.27;16.93;;;;;;;;;;5028418;28;20223;-70
2021/03/08 04:49:25;;;;;;;21.80;16.50;;;;;;;;;;5015721;28;20209;-70
2021/03/08 04:51:52;;;;;;;20.43;16.63;;;;;;;;;;5032208;28;20220;-70
2021/03/08 04:54:18;;;;;;;19.43;16.40;;;;;;;;;;5035417;28;20723;-71
2021/03/08 04:56:44;;;;;;;19.23;15.80;;;;;;;;;;5022813;28;20212;-70
2021/03/08 04:59:11;;;;;;;18.37;15.40;;;;;;;;;;5027820;28;20195;-70
2021/03/08 05:01:38;;;;;;;20.30;15.73;;;;;;;;;;5016799;28;20192;-70
2021/03/08 05:04:07;;;;;;;20.87;16.80;;;;;;;;;;5019727;28;20209;-70
2021/03/08 05:06:34;;;;;;;21.40;17.60;;;;;;;;;;5024468;28;20251;-70
2021/03/08 05:09:01;;;;;;;23.20;18.63;;;;;;;;;;5015527;28;20186;-70
2021/03/08 05:11:29;;;;;;;23.07;18.97;;;;;;;;;;5020208;28;20199;-71
2021/03/08 05:13:55;;;;;;;23.47;19.03;;;;;;;;;;5022419;28;20188;-70
2021/03/08 05:16:22;;;;;;;24.60;18.43;;;;;;;;;;5028397;28;20688;-70
2021/03/08 05:18:49;;;;;;;20.93;17.80;;;;;;;;;;5017716;28;20189;-71
2021/03/08 05:21:16;;;;;;;22.43;17.90;;;;;;;;;;5017182;28;20189;-70
2021/03/08 05:23:42;;;;;;;24.90;18.27;;;;;;;;;;5018870;28;20283;-70
2021/03/08 05:26:09;;;;;;;21.93;17.23;;;;;;;;;;5022794;28;20242;-70
2021/03/08 05:28:35;;;;;;;21.17;17.73;;;;;;;;;;5036158;28;20184;-70
2021/03/08 05:31:01;;;;;;;21.67;17.90;;;;;;;;;;5023766;28;20182;-70
2021/03/08 05:33:31;;;;;;;25.80;19.27;;;;;;;;;;5019660;28;20242;-70
2021/03/08 05:36:00;;;;;;;24.53;19.10;;;;;;;;;;5019628;28;20216;-70
2021/03/08 05:38:28;;;;;;;24.50;19.83;;;;;;;;;;5017176;28;20704;-70
2021/03/08 05:41:16;;;;;;;28.60;19.00;;;;;;;;;;5019013;28;20268;-70
2021/03/08 05:43:46;;;;;;;24.57;18.50;;;;;;;;;;5022204;28;20266;-70
2021/03/08 05:46:16;;;;;;;26.50;18.67;;;;;;;;;;5026591;28;20215;-70
2021/03/08 05:48:57;;;;;;;22.37;18.73;;;;;;;;;;5023081;28;20197;-70
2021/03/08 05:51:44;;;;;;;25.80;18.23;;;;;;;;;;5024810;28;20187;-70
2021/03/08 05:54:45;;;;;;;21.70;18.90;;;;;;;;;;5023824;28;20182;-70
2021/03/08 05:57:18;;;;;;;30.27;19.13;;;;;;;;;;5009695;28;20204;-70
2021/03/08 06:00:18;;;;;;;24.50;18.37;;;;;;;;;;5016218;28;20272;-70
2021/03/08 06:02:47;;;;;;;21.40;18.33;;;;;;;;;;5018103;28;20193;-70
2021/03/08 06:05:33;;;;;;;23.93;18.77;;;;;;;;;;5029952;28;20284;-70
2021/03/08 06:07:59;;;;;;;25.13;18.80;;;;;;;;;;5019686;28;20674;-70
2021/03/08 06:10:26;;;;;;;25.30;20.27;;;;;;;;;;5014912;28;20655;-70
2021/03/08 06:12:58;;;;;;;25.30;20.43;;;;;;;;;;5016819;28;20176;-70
2021/03/08 06:15:25;;;;;;;26.63;21.30;;;;;;;;;;5017176;28;20206;-71
2021/03/08 06:17:52;;;;;;;26.33;20.43;;;;;;;;;;5028096;28;20242;-70
2021/03/08 06:20:19;;;;;;;26.00;20.80;;;;;;;;;;5025509;28;20183;-71
2021/03/08 06:22:45;;;;;;;27.97;19.67;;;;;;;;;;5023619;28;20581;-71
2021/03/08 06:25:12;;;;;;;21.97;19.43;;;;;;;;;;5019067;28;20375;-71
2021/03/08 06:27:39;;;;;;;26.47;20.77;;;;;;;;;;5022564;28;20182;-71
2021/03/08 06:30:05;;;;;;;23.93;20.07;;;;;;;;;;5014987;28;20180;-71
2021/03/08 06:32:31;;;;;;;21.43;18.13;;;;;;;;;;5013244;28;20209;-71
2021/03/08 06:34:57;;;;;;;22.20;19.80;;;;;;;;;;5020683;28;20217;-71
2021/03/08 06:37:25;;;;;;;22.77;19.53;;;;;;;;;;5017187;28;20256;-71
2021/03/08 06:39:52;;;;;;;22.73;19.50;;;;;;;;;;5017729;28;20188;-70
2021/03/08 06:42:18;;;;;;;23.20;18.53;;;;;;;;;;5015139;28;20185;-71
2021/03/08 06:44:48;;;;;;;23.67;18.03;;;;;;;;;;5023115;28;20197;-70
2021/03/08 06:47:14;;;;;;;19.50;17.17;;;;;;;;;;5025503;28;20191;-72
2021/03/08 06:49:40;;;;;;;21.90;16.70;;;;;;;;;;5012756;28;20238;-71
2021/03/08 06:52:14;;;;;;;17.67;15.77;;;;;;;;;;5021260;28;20268;-68
2021/03/08 06:54:41;;;;;;;18.20;16.23;;;;;;;;;;5022541;28;20649;-68
2021/03/08 06:57:23;;;;;;;18.67;16.67;;;;;;;;;;5020813;28;20186;-70
2021/03/08 06:59:56;;;;;;;20.57;15.23;;;;;;;;;;5023055;28;20194;-68
2021/03/08 07:02:35;;;;;;;23.17;17.37;;;;;;;;;;5014255;28;20189;-69
2021/03/08 07:05:01;;;;;;;23.50;16.50;;;;;;;;;;5033814;28;20207;-68
2021/03/08 07:07:27;;;;;;;19.73;16.47;;;;;;;;;;5025942;28;20266;-68
2021/03/08 07:09:54;;;;;;;19.07;15.67;;;;;;;;;;5016876;28;20667;-70
2021/03/08 07:12:20;;;;;;;20.90;17.50;;;;;;;;;;5026646;28;20717;-69
2021/03/08 07:15:00;;;;;;;25.80;19.00;;;;;;;;;;5017493;28;20197;-69
2021/03/08 07:17:28;;;;;;;20.77;17.13;;;;;;;;;;5027534;28;20191;-68
2021/03/08 07:19:55;;;;;;;21.57;17.27;;;;;;;;;;5017810;28;20202;-68
2021/03/08 07:22:36;;;;;;;21.03;18.80;;;;;;;;;;5022238;28;20568;-68
2021/03/08 07:25:04;;;;;;;23.57;17.77;;;;;;;;;;5021174;28;20210;-68
2021/03/08 07:27:40;;;;;;;19.77;16.37;;;;;;;;;;5021065;28;20207;-69
2021/03/08 07:30:07;;;;;;;19.27;16.13;;;;;;;;;;5034675;28;20659;-70
2021/03/08 07:32:33;;;;;;;18.30;15.23;;;;;;;;;;5028905;28;20530;-71
2021/03/08 07:34:59;;;;;;;20.67;17.90;;;;;;;;;;5020064;28;20278;-68
2021/03/08 07:37:25;;;;;;;21.50;17.17;;;;;;;;;;5016164;28;20189;-71
2021/03/08 07:39:52;;;;;;;18.80;15.90;;;;;;;;;;5021230;28;20731;-69
2021/03/08 07:42:18;;;;;;;23.17;16.53;;;;;;;;;;5019664;28;20189;-69
2021/03/08 07:44:49;;;;;;;21.47;17.43;;;;;;;;;;5017908;28;20199;-69
2021/03/08 07:47:16;;;;;;;17.90;15.90;;;;;;;;;;5010989;28;20583;-68
2021/03/08 07:49:42;;;;;;;18.30;16.40;;;;;;;;;;5019491;28;20690;-70
2021/03/08 07:52:08;;;;;;;17.77;15.87;;;;;;;;;;5019328;28;20199;-68
2021/03/08 07:54:53;;;;;;;17.30;15.60;;;;;;;;;;5019803;28;20191;-69
2021/03/08 07:57:19;;;;;;;17.35;15.65;;;;;;;;;;5017655;28;20203;-69
2021/03/08 07:59:45;;;;;;;16.27;14.77;;;;;;;;;;5022181;28;20191;-71
2021/03/08 08:02:11;;;;;;;17.30;15.55;;;;;;;;;;5027973;28;20184;-69
2021/03/08 08:04:37;;;;;;;17.30;15.57;;;;;;;;;;5024582;28;20188;-69
2021/03/08 08:07:07;;;;;;;17.52;15.70;;;;;;;;;;5030800;28;20200;-70
2021/03/08 08:09:40;;;;;;;19.88;17.80;;;;;;;;;;5025933;28;20184;-69
2021/03/08 08:12:11;;;;;;;19.70;16.73;;;;;;;;;;5029145;28;20192;-68
2021/03/08 08:14:39;;;;;;;17.55;15.85;;;;;;;;;;5016629;28;20212;-71
2021/03/08 08:17:07;;;;;;;17.45;15.25;;;;;;;;;;5021968;28;21034;-71
2021/03/08 08:19:35;;;;;;;16.63;15.13;;;;;;;;;;5018405;28;20199;-70
2021/03/08 08:22:01;;;;;;;17.45;15.68;;;;;;;;;;5024333;28;20193;-70
2021/03/08 08:24:27;;;;;;;18.17;16.42;;;;;;;;;;5019096;28;20185;-70
2021/03/08 08:26:54;;;;;;;18.33;16.30;;;;;;;;;;5014797;28;20216;-70
2021/03/08 08:29:22;;;;;;;17.95;15.93;;;;;;;;;;5028125;28;20224;-72
2021/03/08 08:32:04;;;;;;;18.58;16.10;;;;;;;;;;5025168;28;20188;-68
2021/03/08 08:34:40;;;;;;;17.08;15.45;;;;;;;;;;5025805;28;20188;-71
2021/03/08 08:37:16;;;;;;;18.33;14.60;;;;;;;;;;5018476;28;20549;-69
2021/03/08 08:40:02;;;;;;;16.65;14.98;;;;;;;;;;5011943;28;20184;-71
2021/03/08 08:42:32;;;;;;;16.73;14.88;;;;;;;;;;5021367;28;20196;-70
2021/03/08 08:44:59;;;;;;;16.88;14.15;;;;;;;;;;5016684;28;20291;-70
2021/03/08 08:47:32;;;;;;;15.68;14.15;;;;;;;;;;5020513;28;20299;-70
2021/03/08 08:49:59;;;;;;;15.82;14.43;;;;;;;;;;5013298;28;20544;-68
2021/03/08 08:52:45;;;;;;;17.27;15.45;;;;;;;;;;5024774;28;20176;-71
2021/03/08 08:55:12;;;;;;;16.25;14.75;;;;;;;;;;5014943;28;20213;-70
2021/03/08 08:57:38;;;;;;;15.63;14.10;;;;;;;;;;5018832;28;20180;-69
2021/03/08 09:00:16;;;;;;;16.85;15.20;;;25.00;38.90;;;;;;5015786;28;20560;-69
2021/03/08 09:02:42;;;;;;;17.30;15.70;;;22.20;31.30;;;;;;5029395;28;20673;-69
2021/03/08 09:05:27;;;;;;;17.38;15.52;;;22.20;31.80;;;;;;5019111;28;20215;-69
2021/03/08 09:08:22;;;;;;;15.88;14.27;;;22.80;30.00;;;;;;5018464;28;20185;-69
2021/03/08 09:10:48;;;;;;;16.17;14.60;;;22.70;30.50;;;;;;5019378;28;20221;-68
2021/03/08 09:13:14;;;;;;;16.83;15.23;;;22.90;28.50;;;;;;5024112;28;20563;-69
2021/03/08 09:15:40;;;;;;;16.98;13.98;;;23.30;28.60;;;;;;5021008;28;20192;-69
2021/03/08 09:18:06;;;;;;;15.80;14.20;;;23.40;27.90;;;;;;5015716;28;20267;-69
2021/03/08 09:20:33;;;;;;;16.58;13.27;;;24.00;28.10;;;;;;5024232;28;20188;-68
2021/03/08 09:23:01;;;;;;;20.27;13.38;;;24.20;28.00;;;;;;5016802;28;20578;-69
2021/03/08 09:25:32;;;;;;;29.65;15.13;;;24.20;27.30;;;;;;5020857;28;20224;-69
2021/03/08 09:28:11;;;;;;;15.13;12.93;;;24.60;27.80;;;;;;5012527;28;20189;-68
2021/03/08 09:30:41;;;;;;;14.68;13.27;;;24.70;26.30;;;;;;5020661;28;20529;-69
2021/03/08 09:33:11;;;;;;;14.82;13.45;;;25.20;26.50;;;;;;5020322;28;20184;-68
2021/03/08 09:35:47;;;;;;;14.88;13.32;;;25.00;26.50;;;;;;5019483;28;20211;-69
2021/03/08 09:38:16;;;;;;;13.82;12.50;;;25.10;26.10;;;;;;5015876;28;20192;-70
2021/03/08 09:40:54;;;;;;;14.57;13.07;;;25.10;27.20;;;;;;5020608;28;20184;-70
2021/03/08 09:43:22;;;;;;;15.68;12.13;;;25.40;25.90;;;;;;5020759;28;20176;-71
2021/03/08 09:45:55;;;;;;;14.50;13.02;;;25.30;27.30;;;;;;5016974;28;20203;-70
2021/03/08 09:48:21;;;;;;;13.43;12.10;;;25.90;27.50;;;;;;5029984;28;20272;-69
2021/03/08 09:50:46;;;;;;;13.27;12.18;;;25.70;25.70;;;;;;5028704;28;20256;-69
2021/03/08 09:53:12;;;;;;;14.48;11.23;;;25.80;26.80;;;;;;5015873;28;20275;-68
2021/03/08 09:55:38;;;;;;;16.35;12.18;;;26.40;26.40;;;;;;5016385;28;20247;-69
2021/03/08 09:58:18;;;;;;;13.88;11.15;;;26.90;24.90;;;;;;5024564;28;20192;-70
2021/03/08 10:00:45;;;;;;;12.93;11.63;;;27.00;24.40;;;;;;5022234;28;20182;-69
2021/03/08 10:03:12;;;;;;;13.68;11.93;;;26.70;25.70;;;;;;5021606;28;20188;-68
2021/03/08 10:05:46;;;;;;;12.95;11.65;;;27.20;23.50;;;;;;5010060;28;20206;-68
2021/03/08 10:08:15;;;;;;;12.85;11.68;;;27.30;24.50;;;;;;5008294;28;20266;-69
2021/03/08 10:10:52;;;;;;;12.48;11.25;;;27.50;24.50;;;;;;5014441;28;20172;-69
2021/03/08 10:13:19;;;;;;;13.25;11.90;;;27.60;24.20;;;;;;5022884;28;20180;-68
2021/03/08 10:15:57;;;;;;;13.57;11.65;;;27.90;23.90;;;;;;5020876;28;20254;-69
2021/03/08 10:18:28;;;;;;;12.13;11.13;;;27.70;24.70;;;;;;5029231;28;20184;-68
2021/03/08 10:20:57;;;;;;;15.40;11.50;;;27.80;24.30;;;;;;5025682;28;20260;-69
2021/03/08 10:23:29;;;;;;;12.68;11.57;;;27.70;24.70;;;;;;5031700;28;20203;-69
2021/03/08 10:26:07;;;;;;;12.25;11.15;;;27.20;25.70;;;;;;5020524;28;20215;-70
2021/03/08 10:28:47;;;;;;;11.93;10.82;;;28.10;23.90;;;;;;5016677;28;20193;-69
2021/03/08 10:31:19;;;;;;;12.80;10.88;;;28.00;24.00;;;;;;5031637;28;20222;-67
2021/03/08 10:33:49;;;;;;;13.02;10.68;;;28.10;23.60;;;;;;5023253;28;20181;-69
2021/03/08 10:36:20;;;;;;;11.90;10.15;;;28.30;24.10;;;;;;5015429;28;20248;-69
2021/03/08 10:38:52;;;;;;;14.05;10.13;;;28.70;23.90;;;;;;5012444;28;20275;-69
2021/03/08 10:41:20;;;;;;;11.55;10.45;;;29.00;23.60;;;;;;5025281;28;20257;-70
2021/03/08 10:43:46;;;;;;;12.23;10.40;;;28.40;23.20;;;;;;5018447;28;20172;-69
2021/03/08 10:46:12;;;;;;;18.13;11.35;;;27.30;22.50;;;;;;5020040;28;20217;-69
2021/03/08 10:48:58;;;;;;;11.32;10.23;;;27.40;24.30;;;;;;5020731;28;20176;-68
2021/03/08 10:51:24;;;;;;;10.45;9.15;;;28.10;25.40;;;;;;5028818;28;20198;-68
2021/03/08 10:53:57;;;;;;;10.43;9.43;;;28.60;23.70;;;;;;5028826;28;20180;-69
2021/03/08 10:56:24;;;;;;;10.68;9.25;;;29.20;23.70;;;;;;5021511;28;20227;-69
2021/03/08 10:58:50;;;;;;;10.80;9.80;;;29.00;23.20;;;;;;5020179;28;20656;-69
2021/03/08 11:01:16;;;;;;;10.15;9.15;;;29.00;22.50;;;;;;5025462;28;20619;-69
2021/03/08 11:03:42;;;;;;;10.90;10.00;;;29.20;23.30;;;;;;5020826;28;20188;-69
2021/03/08 11:06:10;;;;;;;10.40;9.23;;;29.20;22.80;;;;;;5022961;28;21237;-70
2021/03/08 11:08:39;;;;;;;11.27;10.23;;;29.00;22.60;;;;;;5020535;28;20177;-68
2021/03/08 11:11:16;;;;;;;10.27;9.27;;;28.80;23.20;;;;;;5036125;28;20651;-69
2021/03/08 11:13:42;;;;;;;10.82;9.73;;;29.00;22.80;;;;;;5026882;28;20260;-70
2021/03/08 11:16:12;;;;;;;10.90;9.27;;;28.80;22.90;;;;;;5025243;28;20224;-69
2021/03/08 11:18:37;;;;;;;10.57;9.68;;;28.80;23.20;;;;;;5016428;28;20181;-70
2021/03/08 11:21:25;;;;;;;10.07;9.18;;;28.80;23.30;;;;;;5020575;28;20206;-69
2021/03/08 11:24:13;;;;;;;10.35;9.40;;;28.60;23.10;;;;;;5015285;28;20208;-69
2021/03/08 11:26:39;;;;;;;11.13;10.05;;;28.80;22.40;;;;;;5024393;28;20295;-70
2021/03/08 11:29:05;;;;;;;10.63;9.63;;;28.50;24.40;;;;;;5027792;28;20198;-69
2021/03/08 11:31:31;;;;;;;11.38;9.43;;;;;;;;;;5030519;28;20263;-70
2021/03/08 11:33:57;;;;;;;10.15;9.30;;;;;;;;;;5020253;28;20185;-69
2021/03/08 11:36:31;;;;;;;12.40;10.13;;;27.80;23.60;;;;;;5019889;28;20632;-71
2021/03/08 11:39:02;;;;;;;9.88;8.93;;;28.20;23.90;;;;;;5014403;28;20222;-71
2021/03/08 11:41:28;;;;;;;9.52;8.70;;;28.40;24.10;;;;;;5014105;28;20187;-71
2021/03/08 11:43:54;;;;;;;9.52;8.73;;;28.80;22.50;;;;;;5025557;28;20176;-71
2021/03/08 11:46:20;;;;;;;9.45;8.48;;;29.20;22.60;;;;;;5029258;28;20208;-71
2021/03/08 11:48:45;;;;;;;9.23;8.25;;;29.10;22.30;;;;;;5021934;28;20215;-70
2021/03/08 11:51:12;;;;;;;9.60;8.70;;;;;;;;;;5024014;28;20177;-69
2021/03/08 11:53:37;;;;;;;8.45;7.65;;;;;;;;;;5033502;28;20197;-70
2021/03/08 11:56:04;;;;;;;8.50;7.80;;;;;;;;;;5019696;28;20743;-70
2021/03/08 11:58:30;;;;;;;8.52;7.60;;;;;;;;;;5033649;28;20221;-69
2021/03/08 12:00:59;;;;;;;10.57;7.50;;;29.20;22.50;;;;;;5017743;28;20189;-69
2021/03/08 12:03:25;;;;;;;9.02;8.18;;;27.90;23.80;;;;;;5035397;28;20184;-69
2021/03/08 12:05:51;;;;;;;8.68;7.90;;;28.40;24.00;;;;;;5018386;28;20813;-70
2021/03/08 12:08:16;;;;;;;10.77;8.23;;;28.40;23.30;;;;;;5031278;28;20211;-69
2021/03/08 12:10:42;;;;;;;9.05;8.25;;;;;;;;;;5021369;28;20179;-70
2021/03/08 12:13:08;;;;;;;7.97;7.38;;;;;;;;;;5020316;28;20215;-69
2021/03/08 12:15:34;;;;;;;8.73;7.80;;;;;;;;;;5022579;28;20200;-70
2021/03/08 12:18:00;;;;;;;8.60;7.80;;;28.70;22.70;;;;;;5016657;28;20184;-69
2021/03/08 12:20:26;;;;;;;9.18;8.38;;;;;;;;;;5034884;28;20188;-70
2021/03/08 12:22:52;;;;;;;9.98;7.78;;;;;;;;;;5022696;28;20205;-70
2021/03/08 12:25:18;;;;;;;8.73;7.90;;;;;;;;;;5019857;28;20253;-70
2021/03/08 12:27:44;;;;;;;9.18;8.35;;;;;;;;;;5021681;28;20184;-70
2021/03/08 12:30:10;;;;;;;9.38;8.57;;;;;;;;;;5030775;28;20274;-69
2021/03/08 12:32:36;;;;;;;9.23;8.38;;;;;;;;;;5020798;28;20652;-69
2021/03/08 12:35:02;;;;;;;9.30;8.45;;;;;;;;;;5017993;28;20201;-70
2021/03/08 12:37:28;;;;;;;8.70;7.93;;;;;;;;;;5018074;28;20208;-70
2021/03/08 12:39:54;;;;;;;9.27;8.38;;;;;;;;;;5027685;28;20188;-69
2021/03/08 12:42:20;;;;;;;8.43;7.75;;;;;;;;;;5028747;28;20231;-71
2021/03/08 12:44:46;;;;;;;8.77;7.95;;;;;;;;;;5022251;28;20176;-70
2021/03/08 12:47:12;;;;;;;9.07;8.38;;;;;;;;;;5020652;28;20223;-69
2021/03/08 12:49:38;;;;;;;8.25;7.55;;;;;;;;;;5015240;28;20632;-70
2021/03/08 12:52:04;;;;;;;8.43;7.53;;;;;;;;;;5032992;28;20204;-70
2021/03/08 12:54:30;;;;;;;8.75;7.95;;;;;;;;;;5019481;28;20184;-69
2021/03/08 12:56:56;;;;;;;8.00;7.20;;;;;;;;;;5014101;28;20296;-70
2021/03/08 12:59:22;;;;;;;7.78;7.00;;;;;;;;;;5029284;28;20195;-70
2021/03/08 13:01:48;;;;;;;9.10;7.65;;;;;;;;;;5015061;28;20680;-70
2021/03/08 13:04:14;;;;;;;8.57;7.63;;;;;;;;;;5027935;28;20223;-69
2021/03/08 13:06:40;;;;;;;7.95;7.25;;;;;;;;;;5022425;28;20236;-69
2021/03/08 13:09:06;;;;;;;9.65;7.95;;;;;;;;;;5018825;28;20187;-69
2021/03/08 13:11:32;;;;;;;8.43;7.28;;;;;;;;;;5015397;28;20169;-70
2021/03/08 13:13:59;;;;;;;8.05;7.25;;;;;;;;;;5015328;28;20595;-69
2021/03/08 13:16:25;;;;;;;8.35;7.50;;;;;;;;;;5024258;28;20192;-69
2021/03/08 13:18:51;;;;;;;9.20;7.85;;;;;;;;;;5028003;28;20188;-69
2021/03/08 13:21:17;;;;;;;8.00;7.20;;;;;;;;;;5023654;28;20252;-70
2021/03/08 13:23:43;;;;;;;7.63;6.93;;;;;;;;;;5009030;28;20279;-69
2021/03/08 13:26:09;;;;;;;8.27;7.10;;;;;;;;;;5013714;28;20212;-69
2021/03/08 13:28:35;;;;;;;9.13;8.23;;;;;;;;;;5025955;28;20207;-69
2021/03/08 13:31:01;;;;;;;9.27;7.80;;;;;;;;;;5022961;28;20191;-69
2021/03/08 13:33:27;;;;;;;9.07;8.23;;;;;;;;;;5022707;28;20187;-69
2021/03/08 13:35:53;;;;;;;8.02;7.38;;;;;;;;;;5018026;28;20207;-70
2021/03/08 13:38:20;;;;;;;8.45;7.18;;;;;;;;;;5021330;28;20183;-69
2021/03/08 13:40:46;;;;;;;8.70;8.00;;;;;;;;;;5021062;28;20211;-69
2021/03/08 13:43:12;;;;;;;8.10;7.40;;;;;;;;;;5028788;28;20265;-69
2021/03/08 13:45:38;;;;;;;8.45;7.50;;;;;;;;;;5016347;28;20212;-71
2021/03/08 13:48:04;;;;;;;8.30;7.60;;;;;;;;;;5023968;28;20263;-71
2021/03/08 13:50:30;;;;;;;8.07;7.30;;;;;;;;;;5027715;28;20271;-71
2021/03/08 13:52:56;;;;;;;7.82;7.13;;;;;;;;;;5013221;28;20651;-71
2021/03/08 13:55:22;;;;;;;8.45;7.75;;;;;;;;;;5015859;28;20211;-71
2021/03/08 13:57:48;;;;;;;9.38;7.90;;;;;;;;;;5013260;28;20184;-71
2021/03/08 14:00:15;;;;;;;8.73;8.02;;;;;;;;;;5025490;28;20271;-71
2021/03/08 14:02:41;;;;;;;9.40;8.15;;;;;;;;;;5031298;28;20180;-71
2021/03/08 14:05:07;;;;;;;8.85;8.02;;;;;;;;;;5028620;28;20206;-70